ETH885 HAAB-FMMI
Flight info
| Callsign | ETH885 |
|---|---|
| Flight time | N/A |
| Altitude | 35000 |
| Route | IMKIT1A IMKIT UT129 ALEMU/N0478F340 UN301 EVOGO/N0474F360 UN301 MOV UL431 EGPET/N0475F350 UT913 KINAN/N0470F370 UA401 TN TN1Z |
| Aircraft | B738/M-SDE2E3FGHIRWXY/LB1 |
Departure
| Time | N/A |
|---|---|
| Airport | Addis Ababa Bole International Airport (HAAB) |
Arrival
| Time | 2026-04-26 14:24 |
|---|---|
| Airport | Ivato International Airport (FMMI) |
| Time | Latitude | Longitude | Altitude | Speed | Heading |
|---|---|---|---|---|---|
| 2026-04-26 10:52 | 5.24246 | 39.45702 | 34966 ft | 481 kts | 168° |
| 2026-04-26 10:52 | 5.20943 | 39.46259 | 34961 ft | 482 kts | 168° |
| 2026-04-26 10:53 | 5.14330 | 39.47370 | 34957 ft | 482 kts | 169° |
| 2026-04-26 10:53 | 5.07715 | 39.48482 | 34955 ft | 482 kts | 169° |
| 2026-04-26 10:54 | 4.97804 | 39.50146 | 34954 ft | 481 kts | 169° |
| 2026-04-26 10:54 | 4.91208 | 39.51254 | 34955 ft | 480 kts | 169° |
| 2026-04-26 10:55 | 4.84611 | 39.52361 | 34956 ft | 480 kts | 169° |
| 2026-04-26 10:55 | 4.78026 | 39.53467 | 34953 ft | 479 kts | 169° |
| 2026-04-26 10:56 | 4.71448 | 39.54570 | 34947 ft | 479 kts | 169° |
| 2026-04-26 10:56 | 4.64880 | 39.55673 | 34948 ft | 478 kts | 169° |
| 2026-04-26 10:57 | 4.58313 | 39.56775 | 34951 ft | 478 kts | 169° |
| 2026-04-26 10:57 | 4.51757 | 39.57874 | 34950 ft | 477 kts | 169° |
| 2026-04-26 10:58 | 4.45204 | 39.58973 | 34947 ft | 477 kts | 169° |
| 2026-04-26 10:58 | 4.38662 | 39.60070 | 34957 ft | 476 kts | 169° |
| 2026-04-26 10:59 | 4.32125 | 39.61166 | 34957 ft | 476 kts | 169° |
| 2026-04-26 10:59 | 4.25593 | 39.62261 | 34964 ft | 476 kts | 169° |
| 2026-04-26 11:00 | 4.19054 | 39.63357 | 34964 ft | 476 kts | 169° |
| 2026-04-26 11:00 | 4.12511 | 39.64454 | 34962 ft | 477 kts | 169° |
| 2026-04-26 11:01 | 4.05969 | 39.65550 | 34965 ft | 477 kts | 169° |
| 2026-04-26 11:01 | 3.99459 | 39.66643 | 34961 ft | 477 kts | 169° |
| 2026-04-26 11:02 | 3.92927 | 39.67848 | 34963 ft | 478 kts | 168° |
| 2026-04-26 11:02 | 3.86398 | 39.69109 | 34968 ft | 478 kts | 168° |
| 2026-04-26 11:03 | 3.79867 | 39.70361 | 34971 ft | 478 kts | 168° |
| 2026-04-26 11:03 | 3.73332 | 39.71602 | 34970 ft | 478 kts | 168° |
| 2026-04-26 11:04 | 3.66796 | 39.72837 | 34975 ft | 478 kts | 168° |
| 2026-04-26 11:04 | 3.60266 | 39.74070 | 34977 ft | 477 kts | 168° |
| 2026-04-26 11:05 | 3.53747 | 39.75302 | 34976 ft | 477 kts | 168° |
| 2026-04-26 11:05 | 3.47234 | 39.76534 | 34976 ft | 476 kts | 168° |
| 2026-04-26 11:06 | 3.40729 | 39.77763 | 34972 ft | 475 kts | 168° |
| 2026-04-26 11:06 | 3.34233 | 39.78991 | 34973 ft | 475 kts | 168° |
| 2026-04-26 11:07 | 3.27748 | 39.80216 | 34967 ft | 474 kts | 168° |
| 2026-04-26 11:07 | 3.21270 | 39.81440 | 34965 ft | 473 kts | 168° |
| 2026-04-26 11:08 | 3.14806 | 39.82661 | 34964 ft | 473 kts | 168° |
| 2026-04-26 11:08 | 3.08343 | 39.83882 | 34957 ft | 472 kts | 168° |
| 2026-04-26 11:09 | 3.01885 | 39.85101 | 34957 ft | 472 kts | 168° |
| 2026-04-26 11:09 | 2.95434 | 39.86320 | 34951 ft | 472 kts | 168° |
| 2026-04-26 11:10 | 2.88976 | 39.87539 | 34946 ft | 472 kts | 168° |
| 2026-04-26 11:10 | 2.82513 | 39.88759 | 34942 ft | 473 kts | 168° |
| 2026-04-26 11:11 | 2.76047 | 39.89980 | 34941 ft | 473 kts | 168° |
| 2026-04-26 11:11 | 2.69617 | 39.91193 | 34940 ft | 474 kts | 168° |
| 2026-04-26 11:12 | 2.63134 | 39.92417 | 34935 ft | 474 kts | 168° |
| 2026-04-26 11:12 | 2.56647 | 39.93640 | 34936 ft | 475 kts | 168° |
| 2026-04-26 11:13 | 2.50137 | 39.94812 | 34933 ft | 476 kts | 168° |
| 2026-04-26 11:13 | 2.43608 | 39.95959 | 34928 ft | 476 kts | 168° |
| 2026-04-26 11:14 | 2.37079 | 39.97112 | 34929 ft | 477 kts | 168° |
| 2026-04-26 11:14 | 2.31651 | 39.98076 | 34924 ft | 477 kts | 168° |
| 2026-04-26 11:15 | 2.24011 | 39.99435 | 34923 ft | 477 kts | 168° |
| 2026-04-26 11:15 | 2.17466 | 40.00599 | 34924 ft | 478 kts | 168° |
| 2026-04-26 11:16 | 2.10923 | 40.01762 | 34923 ft | 478 kts | 168° |
| 2026-04-26 11:16 | 2.04374 | 40.02926 | 34915 ft | 478 kts | 168° |
| 2026-04-26 11:17 | 1.97828 | 40.04089 | 34917 ft | 478 kts | 168° |
| 2026-04-26 11:17 | 1.91279 | 40.05253 | 34913 ft | 478 kts | 168° |
| 2026-04-26 11:18 | 1.84774 | 40.06410 | 34914 ft | 478 kts | 168° |
| 2026-04-26 11:18 | 1.78214 | 40.07575 | 34912 ft | 479 kts | 168° |
| 2026-04-26 11:19 | 1.71579 | 40.08062 | 34904 ft | 481 kts | 183° |
| 2026-04-26 11:19 | 1.64903 | 40.07433 | 34910 ft | 482 kts | 185° |
| 2026-04-26 11:20 | 1.59308 | 40.06863 | 34911 ft | 482 kts | 184° |
| 2026-04-26 11:20 | 1.51541 | 40.06131 | 34907 ft | 482 kts | 184° |
| 2026-04-26 11:21 | 1.44856 | 40.05535 | 34912 ft | 483 kts | 184° |
| 2026-04-26 11:21 | 1.38167 | 40.04942 | 34890 ft | 483 kts | 184° |
| 2026-04-26 11:22 | 1.31485 | 40.04348 | 34899 ft | 482 kts | 184° |
| 2026-04-26 11:22 | 1.24795 | 40.03752 | 34897 ft | 482 kts | 184° |
| 2026-04-26 11:23 | 1.18111 | 40.03156 | 34897 ft | 482 kts | 184° |
| 2026-04-26 11:23 | 1.11444 | 40.02561 | 34892 ft | 481 kts | 184° |
| 2026-04-26 11:24 | 1.04771 | 40.01966 | 34894 ft | 481 kts | 184° |
| 2026-04-26 11:24 | 0.98106 | 40.01372 | 34894 ft | 481 kts | 184° |
| 2026-04-26 11:25 | 0.91443 | 40.00777 | 34892 ft | 481 kts | 184° |
| 2026-04-26 11:25 | 0.84780 | 40.00180 | 34886 ft | 480 kts | 184° |
| 2026-04-26 11:26 | 0.78121 | 39.99583 | 34886 ft | 480 kts | 184° |
| 2026-04-26 11:26 | 0.71466 | 39.98987 | 34881 ft | 480 kts | 184° |
| 2026-04-26 11:27 | 0.64792 | 39.98389 | 35034 ft | 482 kts | 184° |
| 2026-04-26 11:27 | 0.61493 | 39.98093 | 35241 ft | 480 kts | 184° |
| 2026-04-26 11:27 | 0.58175 | 39.97796 | 35473 ft | 478 kts | 184° |
| 2026-04-26 11:28 | 0.54861 | 39.97499 | 35639 ft | 478 kts | 184° |
| 2026-04-26 11:28 | 0.51546 | 39.97202 | 35769 ft | 478 kts | 184° |
| 2026-04-26 11:28 | 0.44919 | 39.96608 | 35876 ft | 479 kts | 183° |
| 2026-04-26 11:29 | 0.38271 | 39.96013 | 35880 ft | 479 kts | 183° |
| 2026-04-26 11:29 | 0.31638 | 39.95419 | 35879 ft | 479 kts | 183° |
| 2026-04-26 11:30 | 0.26078 | 39.94921 | 35880 ft | 478 kts | 183° |
| 2026-04-26 11:30 | 0.19498 | 39.94331 | 35878 ft | 478 kts | 183° |
| 2026-04-26 11:31 | 0.12874 | 39.93738 | 35876 ft | 477 kts | 183° |
| 2026-04-26 11:31 | 0.06260 | 39.93146 | 35876 ft | 477 kts | 183° |
| 2026-04-26 11:32 | -0.00353 | 39.92553 | 35879 ft | 477 kts | 183° |
| 2026-04-26 11:32 | -0.06966 | 39.91961 | 35881 ft | 477 kts | 183° |
| 2026-04-26 11:33 | -0.13574 | 39.91369 | 35878 ft | 477 kts | 183° |
| 2026-04-26 11:33 | -0.20181 | 39.90777 | 35879 ft | 477 kts | 183° |
| 2026-04-26 11:34 | -0.26783 | 39.90185 | 35879 ft | 476 kts | 183° |
| 2026-04-26 11:34 | -0.33385 | 39.89600 | 35879 ft | 476 kts | 183° |
| 2026-04-26 11:35 | -0.39992 | 39.89141 | 35882 ft | 476 kts | 182° |
| 2026-04-26 11:35 | -0.46599 | 39.88735 | 35879 ft | 476 kts | 182° |
| 2026-04-26 11:36 | -0.53206 | 39.88319 | 35878 ft | 476 kts | 182° |
| 2026-04-26 11:36 | -0.59813 | 39.87889 | 35882 ft | 476 kts | 182° |
| 2026-04-26 11:37 | -0.66418 | 39.87454 | 35879 ft | 476 kts | 182° |
| 2026-04-26 11:37 | -0.73010 | 39.87020 | 35881 ft | 476 kts | 182° |
| 2026-04-26 11:38 | -0.79615 | 39.86586 | 35878 ft | 476 kts | 182° |
| 2026-04-26 11:38 | -0.86225 | 39.86152 | 35882 ft | 476 kts | 182° |
| 2026-04-26 11:39 | -0.92843 | 39.85717 | 35882 ft | 477 kts | 182° |
| 2026-04-26 11:39 | -0.99461 | 39.85282 | 35886 ft | 477 kts | 182° |
| 2026-04-26 11:40 | -1.06090 | 39.84847 | 35886 ft | 477 kts | 182° |
| 2026-04-26 11:40 | -1.12716 | 39.84411 | 35882 ft | 477 kts | 182° |
| 2026-04-26 11:42 | -1.39150 | 39.82674 | 35886 ft | 476 kts | 182° |
| 2026-04-26 11:43 | -1.45767 | 39.82239 | 35886 ft | 476 kts | 182° |
| 2026-04-26 11:43 | -1.52384 | 39.81804 | 35886 ft | 476 kts | 182° |
| 2026-04-26 11:44 | -1.58987 | 39.81370 | 35888 ft | 476 kts | 182° |
| 2026-04-26 11:44 | -1.65609 | 39.80935 | 35883 ft | 476 kts | 182° |
| 2026-04-26 11:45 | -1.72220 | 39.80500 | 35891 ft | 476 kts | 182° |
| 2026-04-26 11:45 | -1.78836 | 39.80065 | 35888 ft | 476 kts | 182° |
| 2026-04-26 11:46 | -1.85444 | 39.79607 | 35891 ft | 476 kts | 182° |
| 2026-04-26 11:46 | -1.92051 | 39.79137 | 35891 ft | 476 kts | 182° |
| 2026-04-26 11:47 | -1.98655 | 39.78669 | 35892 ft | 475 kts | 182° |
| 2026-04-26 11:47 | -2.05246 | 39.78204 | 35895 ft | 475 kts | 182° |
| 2026-04-26 11:48 | -2.11838 | 39.77740 | 35895 ft | 475 kts | 182° |
| 2026-04-26 11:48 | -2.18427 | 39.77276 | 35895 ft | 474 kts | 182° |
| 2026-04-26 11:49 | -2.25004 | 39.76813 | 35897 ft | 474 kts | 182° |
| 2026-04-26 11:49 | -2.31575 | 39.76350 | 35899 ft | 473 kts | 182° |
| 2026-04-26 11:50 | -2.38140 | 39.75888 | 35895 ft | 473 kts | 182° |
| 2026-04-26 11:50 | -2.44693 | 39.75426 | 35902 ft | 472 kts | 182° |
| 2026-04-26 11:51 | -2.51256 | 39.74964 | 35902 ft | 472 kts | 182° |
| 2026-04-26 11:51 | -2.57810 | 39.74502 | 35900 ft | 472 kts | 182° |
| 2026-04-26 11:52 | -2.63257 | 39.74118 | 35904 ft | 472 kts | 182° |
| 2026-04-26 11:52 | -2.70914 | 39.73551 | 35904 ft | 472 kts | 182° |
| 2026-04-26 11:53 | -2.77463 | 39.73059 | 35906 ft | 472 kts | 182° |
| 2026-04-26 11:54 | -2.87300 | 39.72324 | 35908 ft | 472 kts | 182° |
| 2026-04-26 11:54 | -2.93860 | 39.71835 | 35910 ft | 473 kts | 182° |
| 2026-04-26 11:55 | -3.00424 | 39.71347 | 35904 ft | 473 kts | 182° |
| 2026-04-26 11:55 | -3.06999 | 39.70858 | 35906 ft | 474 kts | 182° |
| 2026-04-26 11:56 | -3.13578 | 39.70369 | 35907 ft | 474 kts | 182° |
| 2026-04-26 11:56 | -3.20162 | 39.69880 | 35911 ft | 475 kts | 182° |
| 2026-04-26 11:57 | -3.26757 | 39.69388 | 35909 ft | 476 kts | 182° |
| 2026-04-26 11:57 | -3.33379 | 39.68893 | 35922 ft | 477 kts | 182° |
| 2026-04-26 11:58 | -3.39953 | 39.68405 | 35924 ft | 477 kts | 182° |
| 2026-04-26 11:58 | -3.46570 | 39.67911 | 35920 ft | 477 kts | 182° |
| 2026-04-26 11:59 | -3.53204 | 39.67415 | 35923 ft | 478 kts | 182° |
| 2026-04-26 11:59 | -3.59836 | 39.66920 | 35913 ft | 478 kts | 182° |
| 2026-04-26 12:00 | -3.60956 | 39.66836 | 35916 ft | 478 kts | 182° |
| 2026-04-26 12:00 | -3.67377 | 39.66355 | 35921 ft | 477 kts | 182° |
| 2026-04-26 12:01 | -3.73997 | 39.65861 | 35916 ft | 477 kts | 182° |
| 2026-04-26 12:01 | -3.80608 | 39.65368 | 35920 ft | 476 kts | 182° |
| 2026-04-26 12:02 | -3.87213 | 39.64874 | 35915 ft | 475 kts | 182° |
| 2026-04-26 12:02 | -3.93808 | 39.64381 | 35910 ft | 474 kts | 182° |
| 2026-04-26 12:03 | -4.00347 | 39.63431 | 35916 ft | 475 kts | 189° |
| 2026-04-26 12:03 | -4.06836 | 39.62132 | 35916 ft | 475 kts | 189° |
| 2026-04-26 12:04 | -4.13319 | 39.60842 | 35912 ft | 475 kts | 189° |
| 2026-04-26 12:04 | -4.19804 | 39.59603 | 35923 ft | 474 kts | 189° |
| 2026-04-26 12:05 | -4.26288 | 39.58382 | 35920 ft | 474 kts | 189° |
| 2026-04-26 12:05 | -4.32769 | 39.57163 | 35919 ft | 474 kts | 189° |
| 2026-04-26 12:06 | -4.39239 | 39.55944 | 35923 ft | 473 kts | 189° |
| 2026-04-26 12:06 | -4.45719 | 39.54722 | 35926 ft | 474 kts | 189° |
| 2026-04-26 12:07 | -4.52194 | 39.53500 | 35926 ft | 474 kts | 189° |
| 2026-04-26 12:07 | -4.58655 | 39.52281 | 35924 ft | 476 kts | 189° |
| 2026-04-26 12:08 | -4.65173 | 39.51051 | 35920 ft | 478 kts | 189° |
| 2026-04-26 12:08 | -4.71724 | 39.49891 | 35927 ft | 478 kts | 185° |
| 2026-04-26 12:09 | -4.78348 | 39.49252 | 35933 ft | 478 kts | 183° |
| 2026-04-26 12:09 | -4.84993 | 39.48728 | 35926 ft | 479 kts | 183° |
| 2026-04-26 12:10 | -4.91635 | 39.48170 | 35930 ft | 480 kts | 184° |
| 2026-04-26 12:10 | -4.98288 | 39.47578 | 35929 ft | 480 kts | 184° |
| 2026-04-26 12:11 | -5.04933 | 39.46977 | 35924 ft | 479 kts | 184° |
| 2026-04-26 12:11 | -5.11568 | 39.46376 | 35927 ft | 478 kts | 184° |
| 2026-04-26 12:12 | -5.18186 | 39.45777 | 35931 ft | 478 kts | 184° |
| 2026-04-26 12:12 | -5.24807 | 39.45179 | 35929 ft | 477 kts | 184° |
| 2026-04-26 12:13 | -5.31408 | 39.44584 | 35937 ft | 476 kts | 184° |
| 2026-04-26 12:13 | -5.38014 | 39.43988 | 35926 ft | 476 kts | 184° |
| 2026-04-26 12:14 | -5.44599 | 39.43394 | 35931 ft | 475 kts | 184° |
| 2026-04-26 12:14 | -5.51187 | 39.42799 | 35934 ft | 474 kts | 184° |
| 2026-04-26 12:15 | -5.57747 | 39.42207 | 35930 ft | 472 kts | 184° |
| 2026-04-26 12:15 | -5.64207 | 39.41622 | 35928 ft | 461 kts | 184° |
| 2026-04-26 12:16 | -5.70575 | 39.41047 | 35933 ft | 458 kts | 184° |
| 2026-04-26 12:16 | -5.76907 | 39.40476 | 35934 ft | 456 kts | 184° |
| 2026-04-26 12:17 | -5.83214 | 39.39915 | 35935 ft | 454 kts | 181° |
| 2026-04-26 12:17 | -5.86360 | 39.40063 | 35931 ft | 452 kts | 169° |
| 2026-04-26 12:17 | -5.88387 | 39.40509 | 35940 ft | 450 kts | 162° |
| 2026-04-26 12:18 | -5.94794 | 39.43562 | 35944 ft | 449 kts | 148° |
| 2026-04-26 12:18 | -6.00141 | 39.46841 | 35938 ft | 452 kts | 147° |
| 2026-04-26 12:19 | -6.05538 | 39.50116 | 35935 ft | 455 kts | 148° |
| 2026-04-26 12:19 | -6.10108 | 39.52848 | 35932 ft | 457 kts | 148° |
| 2026-04-26 12:20 | -6.15586 | 39.56110 | 35932 ft | 459 kts | 148° |
| 2026-04-26 12:20 | -6.21093 | 39.59391 | 35932 ft | 461 kts | 148° |
| 2026-04-26 12:21 | -6.26610 | 39.62687 | 35931 ft | 462 kts | 147° |
| 2026-04-26 12:21 | -6.32040 | 39.66124 | 35930 ft | 461 kts | 146° |
| 2026-04-26 12:22 | -6.37443 | 39.69602 | 35931 ft | 461 kts | 146° |
| 2026-04-26 12:22 | -6.42815 | 39.73028 | 35932 ft | 460 kts | 146° |
| 2026-04-26 12:23 | -6.48238 | 39.76447 | 35932 ft | 459 kts | 147° |
| 2026-04-26 12:23 | -6.53678 | 39.79823 | 35933 ft | 459 kts | 147° |
| 2026-04-26 12:24 | -6.59105 | 39.83194 | 35931 ft | 458 kts | 147° |
| 2026-04-26 12:24 | -6.64523 | 39.86569 | 35932 ft | 458 kts | 147° |
| 2026-04-26 12:25 | -6.72655 | 39.91641 | 35928 ft | 459 kts | 147° |
| 2026-04-26 12:25 | -6.78080 | 39.95024 | 35933 ft | 459 kts | 147° |
| 2026-04-26 12:26 | -6.83522 | 39.98413 | 35934 ft | 460 kts | 147° |
| 2026-04-26 12:26 | -6.88976 | 40.01806 | 35930 ft | 461 kts | 147° |
| 2026-04-26 12:27 | -6.94440 | 40.05206 | 35931 ft | 462 kts | 147° |
| 2026-04-26 12:27 | -6.99914 | 40.08615 | 35927 ft | 463 kts | 147° |
| 2026-04-26 12:28 | -7.05399 | 40.12031 | 35926 ft | 464 kts | 147° |
| 2026-04-26 12:28 | -7.10887 | 40.15452 | 35926 ft | 464 kts | 147° |
| 2026-04-26 12:29 | -7.16345 | 40.18853 | 35924 ft | 464 kts | 147° |
| 2026-04-26 12:30 | -7.24578 | 40.23987 | 35927 ft | 464 kts | 147° |
| 2026-04-26 12:30 | -7.30067 | 40.27412 | 35922 ft | 464 kts | 147° |
| 2026-04-26 12:31 | -7.38299 | 40.32548 | 35925 ft | 464 kts | 147° |
| 2026-04-26 12:31 | -7.43779 | 40.35969 | 35922 ft | 463 kts | 147° |
| 2026-04-26 12:32 | -7.49251 | 40.39387 | 35920 ft | 463 kts | 147° |
| 2026-04-26 12:33 | -7.57469 | 40.44520 | 35922 ft | 463 kts | 147° |
| 2026-04-26 12:33 | -7.62945 | 40.47943 | 35921 ft | 464 kts | 147° |
| 2026-04-26 12:34 | -7.68437 | 40.51376 | 35925 ft | 465 kts | 147° |
| 2026-04-26 12:34 | -7.73934 | 40.54814 | 35926 ft | 466 kts | 147° |
| 2026-04-26 12:35 | -7.79450 | 40.58265 | 35925 ft | 467 kts | 147° |
| 2026-04-26 12:35 | -7.84969 | 40.61740 | 35925 ft | 468 kts | 146° |
| 2026-04-26 12:36 | -7.90443 | 40.65311 | 35924 ft | 469 kts | 146° |
| 2026-04-26 12:36 | -7.95928 | 40.68908 | 35923 ft | 471 kts | 146° |
| 2026-04-26 12:37 | -8.01391 | 40.72477 | 35925 ft | 472 kts | 146° |
| 2026-04-26 12:37 | -8.06912 | 40.76076 | 35922 ft | 473 kts | 146° |
| 2026-04-26 12:38 | -8.12446 | 40.79687 | 35925 ft | 474 kts | 146° |
| 2026-04-26 12:38 | -8.17988 | 40.83303 | 35920 ft | 475 kts | 146° |
| 2026-04-26 12:39 | -8.23577 | 40.86860 | 35920 ft | 475 kts | 148° |
| 2026-04-26 12:39 | -8.29222 | 40.90334 | 35924 ft | 476 kts | 148° |
| 2026-04-26 12:40 | -8.34872 | 40.93811 | 35921 ft | 476 kts | 148° |
| 2026-04-26 12:40 | -8.40515 | 40.97303 | 35922 ft | 475 kts | 148° |
| 2026-04-26 12:41 | -8.46152 | 41.00803 | 35922 ft | 475 kts | 148° |
| 2026-04-26 12:41 | -8.51779 | 41.04299 | 35922 ft | 475 kts | 148° |
| 2026-04-26 12:42 | -8.57404 | 41.07795 | 35923 ft | 475 kts | 148° |
| 2026-04-26 12:42 | -8.63028 | 41.11292 | 35922 ft | 474 kts | 148° |
| 2026-04-26 12:43 | -8.68645 | 41.14785 | 35922 ft | 474 kts | 148° |
| 2026-04-26 12:43 | -8.74225 | 41.18256 | 35927 ft | 474 kts | 148° |
| 2026-04-26 12:44 | -8.79877 | 41.21772 | 35923 ft | 474 kts | 148° |
| 2026-04-26 12:44 | -8.85485 | 41.25263 | 35923 ft | 474 kts | 148° |
| 2026-04-26 12:45 | -8.91101 | 41.28761 | 35924 ft | 474 kts | 148° |
| 2026-04-26 12:45 | -8.96676 | 41.32234 | 35923 ft | 474 kts | 148° |
| 2026-04-26 12:46 | -9.02290 | 41.35732 | 35924 ft | 474 kts | 148° |
| 2026-04-26 12:46 | -9.07913 | 41.39237 | 35920 ft | 475 kts | 148° |
| 2026-04-26 12:47 | -9.13537 | 41.42745 | 35921 ft | 475 kts | 148° |
| 2026-04-26 12:47 | -9.19160 | 41.46253 | 35924 ft | 475 kts | 148° |
| 2026-04-26 12:48 | -9.24793 | 41.49768 | 35923 ft | 476 kts | 148° |
| 2026-04-26 12:48 | -9.30427 | 41.53286 | 35926 ft | 476 kts | 148° |
| 2026-04-26 12:49 | -9.36061 | 41.56805 | 35922 ft | 476 kts | 148° |
| 2026-04-26 12:49 | -9.41701 | 41.60329 | 35923 ft | 476 kts | 148° |
| 2026-04-26 12:50 | -9.47343 | 41.63855 | 35924 ft | 477 kts | 148° |
| 2026-04-26 12:50 | -9.52991 | 41.67387 | 35923 ft | 477 kts | 148° |
| 2026-04-26 12:51 | -9.58631 | 41.70916 | 35927 ft | 477 kts | 148° |
| 2026-04-26 12:51 | -9.64281 | 41.74452 | 35923 ft | 477 kts | 148° |
| 2026-04-26 12:52 | -9.69922 | 41.77983 | 35922 ft | 477 kts | 148° |
| 2026-04-26 12:52 | -9.75568 | 41.81519 | 35925 ft | 477 kts | 148° |
| 2026-04-26 12:53 | -9.81211 | 41.85055 | 35923 ft | 477 kts | 148° |
| 2026-04-26 12:53 | -9.86852 | 41.88591 | 35925 ft | 477 kts | 148° |
| 2026-04-26 12:54 | -9.92495 | 41.92129 | 35923 ft | 477 kts | 148° |
| 2026-04-26 12:54 | -9.98100 | 41.95646 | 35922 ft | 477 kts | 148° |
| 2026-04-26 12:55 | -10.03740 | 41.99185 | 35925 ft | 477 kts | 148° |
| 2026-04-26 12:55 | -10.09384 | 42.02729 | 35925 ft | 477 kts | 149° |
| 2026-04-26 12:56 | -10.15024 | 42.06271 | 35925 ft | 477 kts | 149° |
| 2026-04-26 12:56 | -10.20668 | 42.09818 | 35923 ft | 477 kts | 149° |
| 2026-04-26 12:57 | -10.26308 | 42.13363 | 35924 ft | 477 kts | 149° |
| 2026-04-26 12:57 | -10.31951 | 42.16913 | 35922 ft | 477 kts | 149° |
| 2026-04-26 12:58 | -10.40422 | 42.22243 | 35923 ft | 477 kts | 149° |
| 2026-04-26 12:58 | -10.46067 | 42.25797 | 35925 ft | 478 kts | 149° |
| 2026-04-26 12:59 | -10.51717 | 42.29356 | 35927 ft | 478 kts | 149° |
| 2026-04-26 12:59 | -10.57370 | 42.32919 | 35926 ft | 478 kts | 149° |
| 2026-04-26 13:00 | -10.63019 | 42.36480 | 35922 ft | 478 kts | 149° |
| 2026-04-26 13:00 | -10.68672 | 42.40047 | 35925 ft | 478 kts | 149° |
| 2026-04-26 13:01 | -10.74325 | 42.43627 | 35923 ft | 479 kts | 147° |
| 2026-04-26 13:01 | -10.79712 | 42.47614 | 35931 ft | 479 kts | 143° |
| 2026-04-26 13:02 | -10.84982 | 42.51785 | 35924 ft | 480 kts | 143° |
| 2026-04-26 13:02 | -10.90261 | 42.55951 | 35926 ft | 480 kts | 143° |
| 2026-04-26 13:03 | -10.95561 | 42.60088 | 35931 ft | 481 kts | 143° |
| 2026-04-26 13:03 | -11.00878 | 42.64217 | 35924 ft | 481 kts | 143° |
| 2026-04-26 13:04 | -11.06201 | 42.68348 | 35923 ft | 481 kts | 143° |
| 2026-04-26 13:04 | -11.11533 | 42.72490 | 35920 ft | 482 kts | 143° |
| 2026-04-26 13:05 | -11.16861 | 42.76632 | 35921 ft | 482 kts | 143° |
| 2026-04-26 13:05 | -11.22190 | 42.80778 | 35920 ft | 482 kts | 143° |
| 2026-04-26 13:06 | -11.27491 | 42.84904 | 35921 ft | 483 kts | 143° |
| 2026-04-26 13:06 | -11.32830 | 42.89061 | 35922 ft | 483 kts | 143° |
| 2026-04-26 13:07 | -11.37298 | 42.92542 | 35920 ft | 483 kts | 143° |
| 2026-04-26 13:07 | -11.43501 | 42.97377 | 35920 ft | 483 kts | 143° |
| 2026-04-26 13:08 | -11.48835 | 43.01536 | 35917 ft | 483 kts | 143° |
| 2026-04-26 13:08 | -11.53308 | 43.05026 | 35917 ft | 483 kts | 143° |
| 2026-04-26 13:09 | -11.58603 | 43.09159 | 35914 ft | 483 kts | 143° |
| 2026-04-26 13:09 | -11.63938 | 43.13325 | 35914 ft | 483 kts | 143° |
| 2026-04-26 13:10 | -11.69269 | 43.17490 | 35915 ft | 483 kts | 143° |
| 2026-04-26 13:10 | -11.74599 | 43.21656 | 35915 ft | 483 kts | 143° |
| 2026-04-26 13:11 | -11.79930 | 43.25825 | 35915 ft | 483 kts | 143° |
| 2026-04-26 13:11 | -11.85264 | 43.29999 | 35922 ft | 483 kts | 143° |
| 2026-04-26 13:12 | -11.90592 | 43.34170 | 35923 ft | 483 kts | 143° |
| 2026-04-26 13:12 | -11.95933 | 43.38354 | 35923 ft | 483 kts | 143° |
| 2026-04-26 13:13 | -12.01264 | 43.42531 | 35923 ft | 483 kts | 143° |
| 2026-04-26 13:13 | -12.06598 | 43.46713 | 35923 ft | 483 kts | 143° |
| 2026-04-26 13:14 | -12.11938 | 43.50902 | 35926 ft | 484 kts | 143° |
| 2026-04-26 13:14 | -12.17276 | 43.55092 | 35923 ft | 484 kts | 143° |
| 2026-04-26 13:15 | -12.22619 | 43.59287 | 35921 ft | 484 kts | 143° |
| 2026-04-26 13:15 | -12.27956 | 43.63481 | 35925 ft | 484 kts | 143° |
| 2026-04-26 13:16 | -12.33307 | 43.67687 | 35922 ft | 485 kts | 143° |
| 2026-04-26 13:16 | -12.38660 | 43.71897 | 35916 ft | 486 kts | 143° |
| 2026-04-26 13:17 | -12.46695 | 43.78221 | 35916 ft | 486 kts | 143° |
| 2026-04-26 13:18 | -12.54720 | 43.84542 | 35916 ft | 485 kts | 143° |
| 2026-04-26 13:19 | -12.62746 | 43.90869 | 35916 ft | 485 kts | 143° |
| 2026-04-26 13:19 | -12.68095 | 43.95089 | 35919 ft | 485 kts | 143° |
| 2026-04-26 13:20 | -12.73439 | 43.99306 | 35919 ft | 485 kts | 143° |
| 2026-04-26 13:20 | -12.78782 | 44.03526 | 35916 ft | 485 kts | 143° |
| 2026-04-26 13:21 | -12.84121 | 44.07744 | 35916 ft | 485 kts | 143° |
| 2026-04-26 13:21 | -12.89464 | 44.11969 | 35914 ft | 485 kts | 143° |
| 2026-04-26 13:22 | -12.94765 | 44.16161 | 35913 ft | 485 kts | 143° |
| 2026-04-26 13:22 | -13.00102 | 44.20386 | 35912 ft | 485 kts | 144° |
| 2026-04-26 13:23 | -13.05483 | 44.24646 | 35922 ft | 492 kts | 143° |
| 2026-04-26 13:23 | -13.10944 | 44.28972 | 35925 ft | 498 kts | 143° |
| 2026-04-26 13:24 | -13.16449 | 44.33338 | 35916 ft | 501 kts | 143° |
| 2026-04-26 13:24 | -13.21970 | 44.37718 | 35912 ft | 502 kts | 143° |
| 2026-04-26 13:25 | -13.27502 | 44.42110 | 35910 ft | 502 kts | 143° |
| 2026-04-26 13:25 | -13.33027 | 44.46500 | 35909 ft | 502 kts | 144° |
| 2026-04-26 13:26 | -13.38540 | 44.50881 | 35909 ft | 501 kts | 144° |
| 2026-04-26 13:26 | -13.44041 | 44.55257 | 35909 ft | 500 kts | 144° |
| 2026-04-26 13:27 | -13.49535 | 44.59632 | 35909 ft | 499 kts | 144° |
| 2026-04-26 13:27 | -13.55009 | 44.63994 | 35909 ft | 498 kts | 144° |
| 2026-04-26 13:28 | -13.60483 | 44.68360 | 35912 ft | 497 kts | 144° |
| 2026-04-26 13:28 | -13.65944 | 44.72717 | 35913 ft | 497 kts | 144° |
| 2026-04-26 13:29 | -13.71403 | 44.77075 | 35909 ft | 497 kts | 144° |
| 2026-04-26 13:29 | -13.76861 | 44.81435 | 35908 ft | 496 kts | 144° |
| 2026-04-26 13:30 | -13.82313 | 44.85793 | 35912 ft | 496 kts | 144° |
| 2026-04-26 13:30 | -13.87731 | 44.90126 | 35906 ft | 496 kts | 144° |
| 2026-04-26 13:31 | -13.93179 | 44.94486 | 35908 ft | 496 kts | 144° |
| 2026-04-26 13:31 | -13.98627 | 44.98850 | 35911 ft | 496 kts | 144° |
| 2026-04-26 13:32 | -14.04075 | 45.03214 | 35909 ft | 496 kts | 144° |
| 2026-04-26 13:32 | -14.09527 | 45.07586 | 35911 ft | 496 kts | 144° |
| 2026-04-26 13:33 | -14.14974 | 45.11956 | 35909 ft | 497 kts | 144° |
| 2026-04-26 13:33 | -14.20428 | 45.16334 | 35909 ft | 497 kts | 144° |
| 2026-04-26 13:34 | -14.25877 | 45.20711 | 35905 ft | 497 kts | 144° |
| 2026-04-26 13:34 | -14.31327 | 45.25092 | 35911 ft | 497 kts | 144° |
| 2026-04-26 13:35 | -14.36779 | 45.29478 | 35906 ft | 497 kts | 144° |
| 2026-04-26 13:35 | -14.42228 | 45.33863 | 35908 ft | 497 kts | 144° |
| 2026-04-26 13:36 | -14.47679 | 45.38253 | 35908 ft | 497 kts | 144° |
| 2026-04-26 13:36 | -14.53127 | 45.42643 | 35910 ft | 497 kts | 144° |
| 2026-04-26 13:37 | -14.58572 | 45.47034 | 35907 ft | 497 kts | 144° |
| 2026-04-26 13:37 | -14.64015 | 45.51426 | 35905 ft | 497 kts | 144° |
| 2026-04-26 13:38 | -14.69430 | 45.55798 | 35907 ft | 497 kts | 144° |
| 2026-04-26 13:38 | -14.74872 | 45.60195 | 35902 ft | 497 kts | 144° |
| 2026-04-26 13:39 | -14.80315 | 45.64595 | 35901 ft | 497 kts | 144° |
| 2026-04-26 13:39 | -14.85756 | 45.68997 | 35903 ft | 497 kts | 144° |
| 2026-04-26 13:40 | -14.91200 | 45.73404 | 35906 ft | 497 kts | 144° |
| 2026-04-26 13:40 | -14.96638 | 45.77810 | 35897 ft | 497 kts | 144° |
| 2026-04-26 13:41 | -15.02081 | 45.82221 | 35898 ft | 497 kts | 144° |
| 2026-04-26 13:41 | -15.07518 | 45.86631 | 35896 ft | 497 kts | 144° |
| 2026-04-26 13:42 | -15.12955 | 45.91045 | 35897 ft | 497 kts | 144° |
| 2026-04-26 13:42 | -15.18394 | 45.95463 | 35901 ft | 497 kts | 144° |
| 2026-04-26 13:43 | -15.23834 | 45.99884 | 35894 ft | 497 kts | 144° |
| 2026-04-26 13:43 | -15.29237 | 46.04279 | 35893 ft | 497 kts | 144° |
| 2026-04-26 13:44 | -15.34675 | 46.08704 | 35891 ft | 497 kts | 144° |
| 2026-04-26 13:44 | -15.40110 | 46.13132 | 35887 ft | 497 kts | 144° |
| 2026-04-26 13:45 | -15.45547 | 46.17563 | 35896 ft | 497 kts | 144° |
| 2026-04-26 13:45 | -15.50980 | 46.21994 | 35883 ft | 497 kts | 144° |
| 2026-04-26 13:46 | -15.56413 | 46.26429 | 35882 ft | 497 kts | 144° |
| 2026-04-26 13:46 | -15.61848 | 46.30868 | 35886 ft | 497 kts | 144° |
| 2026-04-26 13:47 | -15.67695 | 46.34570 | 35895 ft | 490 kts | 160° |
| 2026-04-26 13:47 | -15.74151 | 46.36645 | 35884 ft | 485 kts | 169° |
| 2026-04-26 13:48 | -15.80671 | 46.38424 | 35883 ft | 485 kts | 169° |
| 2026-04-26 13:48 | -15.87188 | 46.40245 | 35884 ft | 485 kts | 168° |
| 2026-04-26 13:49 | -15.93702 | 46.42110 | 35883 ft | 486 kts | 168° |
| 2026-04-26 13:49 | -16.00217 | 46.43990 | 35880 ft | 486 kts | 168° |
| 2026-04-26 13:50 | -16.06724 | 46.45868 | 35874 ft | 486 kts | 168° |
| 2026-04-26 13:50 | -16.13236 | 46.47746 | 35884 ft | 486 kts | 168° |
| 2026-04-26 13:51 | -16.19744 | 46.49623 | 35870 ft | 486 kts | 168° |
| 2026-04-26 13:51 | -16.26268 | 46.51507 | 35869 ft | 486 kts | 168° |
| 2026-04-26 13:52 | -16.32782 | 46.53389 | 35873 ft | 486 kts | 168° |
| 2026-04-26 13:52 | -16.39303 | 46.55275 | 35866 ft | 486 kts | 168° |
| 2026-04-26 13:53 | -16.45816 | 46.57159 | 35874 ft | 486 kts | 168° |
| 2026-04-26 13:53 | -16.52331 | 46.59042 | 35872 ft | 486 kts | 168° |
| 2026-04-26 13:54 | -16.58849 | 46.60924 | 35878 ft | 486 kts | 168° |
| 2026-04-26 13:54 | -16.65360 | 46.62806 | 35880 ft | 486 kts | 168° |
| 2026-04-26 13:55 | -16.74025 | 46.65314 | 35887 ft | 486 kts | 168° |
| 2026-04-26 13:56 | -16.84896 | 46.68464 | 35891 ft | 486 kts | 168° |
| 2026-04-26 13:56 | -16.90308 | 46.70033 | 35889 ft | 486 kts | 168° |
| 2026-04-26 13:57 | -16.96819 | 46.71923 | 35898 ft | 486 kts | 168° |
| 2026-04-26 13:57 | -17.03333 | 46.73815 | 35901 ft | 486 kts | 168° |
| 2026-04-26 13:58 | -17.09851 | 46.75709 | 35908 ft | 486 kts | 168° |
| 2026-04-26 13:58 | -17.16368 | 46.77604 | 35915 ft | 486 kts | 168° |
| 2026-04-26 13:59 | -17.22844 | 46.79489 | 35920 ft | 487 kts | 168° |
| 2026-04-26 13:59 | -17.29328 | 46.81380 | 35917 ft | 478 kts | 168° |
| 2026-04-26 14:00 | -17.42046 | 46.85088 | 35950 ft | 473 kts | 169° |
| 2026-04-26 14:01 | -17.48371 | 46.86933 | 35948 ft | 472 kts | 169° |
| 2026-04-26 14:01 | -17.51560 | 46.87863 | 35707 ft | 479 kts | 169° |
| 2026-04-26 14:01 | -17.54776 | 46.88801 | 35475 ft | 479 kts | 169° |
| 2026-04-26 14:01 | -17.57970 | 46.89736 | 35245 ft | 477 kts | 169° |
| 2026-04-26 14:02 | -17.61161 | 46.90670 | 35016 ft | 475 kts | 169° |
| 2026-04-26 14:02 | -17.64342 | 46.91601 | 34799 ft | 475 kts | 169° |
| 2026-04-26 14:02 | -17.67527 | 46.92533 | 34434 ft | 474 kts | 169° |
| 2026-04-26 14:02 | -17.70728 | 46.93469 | 33552 ft | 480 kts | 169° |
| 2026-04-26 14:03 | -17.73954 | 46.94412 | 32676 ft | 484 kts | 168° |
| 2026-04-26 14:03 | -17.77220 | 46.95367 | 31757 ft | 489 kts | 168° |
| 2026-04-26 14:03 | -17.80514 | 46.96332 | 30786 ft | 495 kts | 167° |
| 2026-04-26 14:03 | -17.83852 | 46.97311 | 29694 ft | 500 kts | 167° |
| 2026-04-26 14:04 | -17.87203 | 46.98297 | 28760 ft | 499 kts | 166° |
| 2026-04-26 14:04 | -17.90529 | 46.99276 | 28053 ft | 494 kts | 166° |
| 2026-04-26 14:04 | -17.93822 | 47.00243 | 27404 ft | 488 kts | 166° |
| 2026-04-26 14:04 | -17.97070 | 47.01198 | 26705 ft | 483 kts | 166° |
| 2026-04-26 14:05 | -18.00297 | 47.02149 | 25869 ft | 482 kts | 165° |
| 2026-04-26 14:05 | -18.03535 | 47.03103 | 24977 ft | 483 kts | 165° |
| 2026-04-26 14:05 | -18.06754 | 47.04054 | 24294 ft | 478 kts | 165° |
| 2026-04-26 14:05 | -18.09938 | 47.04994 | 23730 ft | 472 kts | 165° |
| 2026-04-26 14:06 | -18.13076 | 47.05921 | 23047 ft | 466 kts | 165° |
| 2026-04-26 14:06 | -18.16172 | 47.06837 | 22364 ft | 460 kts | 165° |
| 2026-04-26 14:06 | -18.19234 | 47.07742 | 21700 ft | 454 kts | 165° |
| 2026-04-26 14:06 | -18.22247 | 47.08633 | 21063 ft | 448 kts | 165° |
| 2026-04-26 14:07 | -18.25231 | 47.09516 | 20415 ft | 443 kts | 165° |
| 2026-04-26 14:07 | -18.28181 | 47.10389 | 19783 ft | 438 kts | 165° |
| 2026-04-26 14:07 | -18.31081 | 47.11247 | 19484 ft | 425 kts | 164° |
| 2026-04-26 14:07 | -18.33876 | 47.12034 | 19385 ft | 408 kts | 166° |
| 2026-04-26 14:08 | -18.36547 | 47.12703 | 19300 ft | 392 kts | 167° |
| 2026-04-26 14:08 | -18.39151 | 47.13326 | 19225 ft | 378 kts | 167° |
| 2026-04-26 14:08 | -18.41672 | 47.13927 | 19136 ft | 365 kts | 167° |
| 2026-04-26 14:08 | -18.44102 | 47.14511 | 19062 ft | 352 kts | 167° |
| 2026-04-26 14:09 | -18.46450 | 47.15082 | 18975 ft | 341 kts | 167° |
| 2026-04-26 14:09 | -18.48599 | 47.15609 | 18804 ft | 334 kts | 167° |
| 2026-04-26 14:09 | -18.50847 | 47.16164 | 18518 ft | 331 kts | 167° |
| 2026-04-26 14:09 | -18.53089 | 47.16719 | 18134 ft | 331 kts | 167° |
| 2026-04-26 14:10 | -18.55321 | 47.17271 | 17788 ft | 328 kts | 167° |
| 2026-04-26 14:10 | -18.57535 | 47.17820 | 17447 ft | 326 kts | 166° |
| 2026-04-26 14:10 | -18.59736 | 47.18366 | 17099 ft | 324 kts | 166° |
| 2026-04-26 14:10 | -18.61920 | 47.18908 | 16835 ft | 320 kts | 166° |
| 2026-04-26 14:11 | -18.66137 | 47.19955 | 16583 ft | 302 kts | 166° |
| 2026-04-26 14:11 | -18.68155 | 47.20455 | 16491 ft | 293 kts | 166° |
| 2026-04-26 14:11 | -18.70108 | 47.20940 | 16395 ft | 284 kts | 166° |
| 2026-04-26 14:12 | -18.72001 | 47.21409 | 16333 ft | 274 kts | 166° |
| 2026-04-26 14:12 | -18.73829 | 47.21863 | 16244 ft | 266 kts | 166° |
| 2026-04-26 14:12 | -18.75477 | 47.22617 | 16111 ft | 256 kts | 136° |
| 2026-04-26 14:12 | -18.76348 | 47.24167 | 16031 ft | 245 kts | 101° |
| 2026-04-26 14:13 | -18.75898 | 47.27551 | 15366 ft | 252 kts | 51° |
| 2026-04-26 14:13 | -18.74406 | 47.28596 | 14657 ft | 269 kts | 15° |
| 2026-04-26 14:13 | -18.72508 | 47.28813 | 14013 ft | 281 kts | 3° |
| 2026-04-26 14:14 | -18.70511 | 47.28868 | 13239 ft | 292 kts | 0° |
| 2026-04-26 14:14 | -18.68532 | 47.28345 | 12569 ft | 298 kts | 327° |
| 2026-04-26 14:14 | -18.67126 | 47.26816 | 12204 ft | 290 kts | 296° |
| 2026-04-26 14:14 | -18.66425 | 47.24849 | 11839 ft | 284 kts | 286° |
| 2026-04-26 14:15 | -18.65849 | 47.22867 | 11432 ft | 281 kts | 285° |
| 2026-04-26 14:15 | -18.65287 | 47.20907 | 11059 ft | 278 kts | 285° |
| 2026-04-26 14:15 | -18.64734 | 47.18968 | 10678 ft | 275 kts | 285° |
| 2026-04-26 14:15 | -18.64465 | 47.17003 | 10271 ft | 270 kts | 259° |
| 2026-04-26 14:16 | -18.65216 | 47.15252 | 9899 ft | 262 kts | 225° |
| 2026-04-26 14:16 | -18.66728 | 47.14280 | 9507 ft | 255 kts | 195° |
| 2026-04-26 14:16 | -18.68459 | 47.14031 | 9091 ft | 251 kts | 170° |
| 2026-04-26 14:16 | -18.70062 | 47.14611 | 8977 ft | 237 kts | 157° |
| 2026-04-26 14:17 | -18.71538 | 47.15279 | 8835 ft | 226 kts | 156° |
| 2026-04-26 14:17 | -18.72945 | 47.15924 | 8722 ft | 215 kts | 156° |
| 2026-04-26 14:17 | -18.74302 | 47.16549 | 8695 ft | 213 kts | 155° |
| 2026-04-26 14:17 | -18.75430 | 47.17509 | 8648 ft | 212 kts | 118° |
| 2026-04-26 14:18 | -18.75888 | 47.18976 | 8406 ft | 216 kts | 101° |
| 2026-04-26 14:18 | -18.76079 | 47.20520 | 8219 ft | 208 kts | 97° |
| 2026-04-26 14:18 | -18.76226 | 47.22004 | 8037 ft | 198 kts | 97° |
| 2026-04-26 14:18 | -18.76368 | 47.23413 | 7864 ft | 188 kts | 97° |
| 2026-04-26 14:19 | -18.76507 | 47.24748 | 7705 ft | 178 kts | 98° |
| 2026-04-26 14:19 | -18.76632 | 47.26006 | 7560 ft | 169 kts | 95° |
| 2026-04-26 14:19 | -18.76711 | 47.27239 | 7346 ft | 171 kts | 96° |
| 2026-04-26 14:19 | -18.76849 | 47.28493 | 7038 ft | 175 kts | 98° |
| 2026-04-26 14:20 | -18.77023 | 47.29776 | 7049 ft | 183 kts | 99° |
| 2026-04-26 14:20 | -18.77229 | 47.31209 | 6961 ft | 203 kts | 99° |
| 2026-04-26 14:20 | -18.77446 | 47.32696 | 6731 ft | 206 kts | 99° |
| 2026-04-26 14:20 | -18.77665 | 47.34186 | 6443 ft | 202 kts | 99° |
| 2026-04-26 14:21 | -18.77874 | 47.35585 | 6226 ft | 187 kts | 98° |
| 2026-04-26 14:21 | -18.78064 | 47.36874 | 6010 ft | 168 kts | 99° |
| 2026-04-26 14:21 | -18.78240 | 47.38069 | 5790 ft | 161 kts | 99° |
| 2026-04-26 14:21 | -18.78409 | 47.39213 | 5599 ft | 156 kts | 99° |
| 2026-04-26 14:22 | -18.78580 | 47.40367 | 5387 ft | 161 kts | 98° |
| 2026-04-26 14:22 | -18.78754 | 47.41547 | 5207 ft | 165 kts | 98° |
| 2026-04-26 14:22 | -18.78918 | 47.42747 | 5023 ft | 167 kts | 98° |
| 2026-04-26 14:22 | -18.79105 | 47.43927 | 4678 ft | 163 kts | 100° |
| 2026-04-26 14:23 | -18.79277 | 47.45079 | 4510 ft | 159 kts | 96° |
| 2026-04-26 14:23 | -18.79437 | 47.46197 | 4260 ft | 153 kts | 101° |
| 2026-04-26 14:23 | -18.79599 | 47.47253 | 4161 ft | 135 kts | 101° |
| 2026-04-26 14:23 | -18.79707 | 47.48004 | 4163 ft | 73 kts | 99° |
| 2026-04-26 14:24 | -18.79758 | 47.48341 | 4159 ft | 34 kts | 99° |
| 2026-04-26 14:24 | -18.79797 | 47.48432 | 4159 ft | 11 kts | 139° |
| 2026-04-26 14:24 | -18.79803 | 47.48483 | 4159 ft | 7 kts | 11° |
| 2026-04-26 14:24 | -18.79781 | 47.48465 | 4159 ft | 3 kts | 285° |
| 2026-04-26 14:25 | -18.79772 | 47.48413 | 4159 ft | 10 kts | 279° |
| 2026-04-26 14:25 | -18.79760 | 47.48329 | 4159 ft | 13 kts | 278° |
| 2026-04-26 14:25 | -18.79745 | 47.48225 | 4160 ft | 15 kts | 278° |
| 2026-04-26 14:25 | -18.79758 | 47.48130 | 4162 ft | 13 kts | 214° |
| 2026-04-26 14:26 | -18.79806 | 47.48120 | 4163 ft | 5 kts | 189° |
| 2026-04-26 14:26 | -18.79843 | 47.48113 | 4164 ft | 8 kts | 190° |
| 2026-04-26 14:26 | -18.79893 | 47.48092 | 4164 ft | 8 kts | 224° |
| 2026-04-26 14:26 | -18.79900 | 47.48039 | 4165 ft | 8 kts | 278° |
| 2026-04-26 14:27 | -18.79893 | 47.47984 | 4165 ft | 7 kts | 278° |
| 2026-04-26 14:27 | -18.79894 | 47.47933 | 4165 ft | 7 kts | 239° |
| 2026-04-26 14:27 | -18.79938 | 47.47926 | 4165 ft | 6 kts | 186° |
| 2026-04-26 14:27 | -18.79982 | 47.47918 | 4165 ft | 6 kts | 188° |
| 2026-04-26 14:28 | -18.79993 | 47.47917 | 4165 ft | 1 kts | 188° |
| 2026-04-26 14:28 | -18.79994 | 47.47916 | 4165 ft | 0 kts | 188° |